Focsani, Romania
Current Conditions -  °F | °C
As of 10:00 AM on Monday 24 Nov 2014 (Local Time) from LRBO Reporting Station
Haze Haze  
Wind Chill: 26°   Ceiling: 1000
Heat Index: 36°   Visibility: 3mi
Dew Point: 32°   Wind: 16mph
Humidity: 87%   Direction: 30°NNE
Pressure: 30.45"   Gusts: NA
Location:  45.7°N, 27.18°E
Report Text: LRBO 240700Z 03014KT 5000 BR BKN010 OVC020 02/M00 Q1031 GRN GRN
Loading
Personal Weather Stations






























Interactive Weather Map New forecast layout! Learn more

10-Day Weather Forecast

Advertisements
Track Severe Weather on mobile